createdAt,value
2023-07-15T00:00:24.505Z,2.70
2023-07-15T00:02:53.203Z,2.70
2023-07-15T00:05:25.268Z,2.67
2023-07-15T00:07:54.984Z,2.60
2023-07-15T00:10:24.546Z,2.43
2023-07-15T00:12:52.889Z,2.87
2023-07-15T00:15:23.996Z,2.20
2023-07-15T00:17:52.648Z,2.43
2023-07-15T00:20:21.125Z,2.77
2023-07-15T00:22:50.456Z,2.40
2023-07-15T00:25:22.237Z,2.40
2023-07-15T00:27:51.039Z,2.70
2023-07-15T00:30:21.349Z,2.90
2023-07-15T00:32:54.303Z,2.80
2023-07-15T00:35:29.809Z,3.00
2023-07-15T00:37:59.555Z,2.63
2023-07-15T00:40:29.750Z,2.70
2023-07-15T00:43:53.986Z,2.90
2023-07-15T00:47:00.184Z,2.50
2023-07-15T00:49:31.043Z,2.67
2023-07-15T00:52:04.637Z,3.00
2023-07-15T00:54:39.625Z,2.70
2023-07-15T00:57:10.514Z,2.60
2023-07-15T00:59:40.637Z,2.90
2023-07-15T01:02:11.553Z,2.70
2023-07-15T01:04:42.964Z,2.87
2023-07-15T01:07:11.268Z,2.87
2023-07-15T01:09:40.151Z,2.60
2023-07-15T01:12:10.085Z,2.80
2023-07-15T01:14:42.324Z,2.53
2023-07-15T01:17:12.018Z,3.03
2023-07-15T01:19:40.342Z,2.57
2023-07-15T01:22:09.372Z,2.77
2023-07-15T01:24:41.828Z,2.87
2023-07-15T01:27:11.028Z,2.70
2023-07-15T01:29:39.407Z,2.90
2023-07-15T01:32:08.536Z,3.37
2023-07-15T01:34:42.494Z,3.40
2023-07-15T01:37:10.951Z,3.13
2023-07-15T01:39:40.924Z,2.90
2023-07-15T01:42:09.491Z,3.20
2023-07-15T01:44:37.977Z,2.87
2023-07-15T01:47:07.048Z,3.00
2023-07-15T01:49:35.444Z,3.20
2023-07-15T01:52:04.090Z,2.90
2023-07-15T01:54:32.403Z,3.20
2023-07-15T01:57:04.956Z,2.70
2023-07-15T01:59:33.326Z,2.73
2023-07-15T02:02:01.728Z,3.03
2023-07-15T02:04:30.095Z,3.50
2023-07-15T02:06:58.473Z,3.03
2023-07-15T02:09:26.797Z,3.27
2023-07-15T02:11:55.110Z,3.00
2023-07-15T02:14:24.808Z,2.70
2023-07-15T02:16:53.803Z,2.80
2023-07-15T02:19:22.345Z,3.60
2023-07-15T02:21:50.727Z,3.27
2023-07-15T02:24:21.815Z,3.10
2023-07-15T02:26:50.157Z,3.13
2023-07-15T02:29:18.992Z,3.10
2023-07-15T02:31:48.679Z,3.37
2023-07-15T02:34:17.287Z,3.53
2023-07-15T02:36:48.392Z,3.20
2023-07-15T02:39:17.859Z,2.93
2023-07-15T02:41:47.892Z,3.40
2023-07-15T02:44:19.302Z,3.57
2023-07-15T02:46:49.512Z,3.23
2023-07-15T02:49:18.209Z,3.30
2023-07-15T02:51:46.735Z,3.10
2023-07-15T02:54:15.046Z,3.23
2023-07-15T02:56:43.543Z,3.57
2023-07-15T02:59:11.912Z,3.40
2023-07-15T03:01:40.286Z,3.13
2023-07-15T03:04:09.975Z,3.63
2023-07-15T03:06:38.400Z,3.47
2023-07-15T03:09:07.179Z,3.57
2023-07-15T03:11:35.540Z,3.70
2023-07-15T03:14:03.833Z,3.80
2023-07-15T03:16:32.176Z,3.37
2023-07-15T03:19:00.514Z,3.73
2023-07-15T03:21:30.193Z,3.30
2023-07-15T03:23:58.759Z,3.57
2023-07-15T03:26:27.071Z,3.13
2023-07-15T03:28:59.105Z,4.00
2023-07-15T03:31:27.514Z,3.50
2023-07-15T03:33:55.852Z,3.10
2023-07-15T03:36:25.997Z,3.30
2023-07-15T03:38:55.684Z,3.53
2023-07-15T03:41:24.008Z,3.40
2023-07-15T03:43:52.476Z,3.20
2023-07-15T03:46:20.836Z,3.13
2023-07-15T03:48:49.174Z,3.23
2023-07-15T03:51:17.538Z,3.53
2023-07-15T03:53:45.864Z,3.27
2023-07-15T03:56:15.762Z,4.00
2023-07-15T03:58:48.932Z,3.50
2023-07-15T04:01:17.364Z,3.57
2023-07-15T04:03:46.183Z,3.87
2023-07-15T04:06:14.771Z,3.10
2023-07-15T04:08:43.246Z,3.30
2023-07-15T04:11:12.152Z,4.13
2023-07-15T04:13:41.892Z,3.83
2023-07-15T04:16:10.230Z,3.80
2023-07-15T04:18:38.585Z,3.80
2023-07-15T04:21:12.935Z,4.13
2023-07-15T04:23:41.267Z,3.93
2023-07-15T04:26:12.596Z,4.03
2023-07-15T04:28:42.455Z,4.00
2023-07-15T04:31:10.865Z,3.53
2023-07-15T04:33:39.209Z,4.13
2023-07-15T04:36:08.107Z,4.20
2023-07-15T04:38:36.406Z,3.67
2023-07-15T04:41:04.762Z,4.00
2023-07-15T04:43:33.076Z,4.17
2023-07-15T04:46:03.271Z,4.47
2023-07-15T04:48:31.594Z,4.20
2023-07-15T04:51:00.979Z,3.80
2023-07-15T04:53:29.606Z,4.00
2023-07-15T04:55:58.033Z,4.03
2023-07-15T04:58:26.684Z,4.07
2023-07-15T05:00:55.006Z,4.17
2023-07-15T05:03:24.745Z,4.47
2023-07-15T05:05:53.166Z,4.27
2023-07-15T05:08:23.640Z,3.90
2023-07-15T05:10:53.159Z,4.23
2023-07-15T05:13:21.881Z,4.00
2023-07-15T05:15:50.264Z,4.33
2023-07-15T05:18:18.998Z,4.03
2023-07-15T05:20:51.772Z,4.30
2023-07-15T05:23:20.042Z,4.53
2023-07-15T05:25:48.371Z,4.40
2023-07-15T05:28:19.388Z,4.43
2023-07-15T05:30:47.677Z,4.77
2023-07-15T05:33:15.983Z,4.43
2023-07-15T05:35:44.275Z,4.37
2023-07-15T05:38:13.927Z,4.53
2023-07-15T05:40:42.999Z,3.93
2023-07-15T05:43:11.913Z,4.00
2023-07-15T05:45:43.396Z,3.77
2023-07-15T05:48:11.896Z,4.30
2023-07-15T05:50:40.673Z,4.33
2023-07-15T05:53:09.286Z,4.20
2023-07-15T05:55:41.832Z,4.30
2023-07-15T05:58:11.843Z,3.83
2023-07-15T06:00:40.988Z,4.47
2023-07-15T06:03:10.057Z,3.83
2023-07-15T06:05:38.943Z,3.83
2023-07-15T06:08:07.279Z,3.80
2023-07-15T06:10:35.590Z,4.17
2023-07-15T06:13:05.330Z,4.20
2023-07-15T06:15:33.698Z,4.17
2023-07-15T06:18:03.026Z,3.80
2023-07-15T06:20:31.391Z,4.23
2023-07-15T06:23:02.401Z,3.90
2023-07-15T06:25:33.302Z,3.80
2023-07-15T06:28:01.650Z,3.90
2023-07-15T06:30:31.412Z,3.73
2023-07-15T06:32:59.907Z,4.20
2023-07-15T06:35:30.873Z,3.73
2023-07-15T06:37:59.310Z,3.50
2023-07-15T06:40:28.079Z,3.77
2023-07-15T06:42:56.422Z,3.53
2023-07-15T06:45:38.266Z,3.90
2023-07-15T06:48:07.265Z,3.70
2023-07-15T06:50:37.832Z,3.80
2023-07-15T06:53:06.277Z,3.87
2023-07-15T06:55:39.354Z,4.17
2023-07-15T06:58:08.506Z,3.93
2023-07-15T07:00:38.215Z,3.80
2023-07-15T07:03:06.659Z,4.00
2023-07-15T07:05:35.068Z,3.33
2023-07-15T07:08:03.922Z,3.40
2023-07-15T07:10:32.252Z,3.73
2023-07-15T07:13:00.560Z,3.93
2023-07-15T07:15:31.040Z,3.40
2023-07-15T07:18:01.159Z,3.63
2023-07-15T07:20:29.532Z,3.37
2023-07-15T07:22:57.993Z,2.97
2023-07-15T07:25:26.497Z,3.30
2023-07-15T07:27:54.786Z,3.35
2023-07-15T07:30:23.172Z,3.23
2023-07-15T07:32:51.546Z,3.22
2023-07-15T07:35:21.497Z,3.50
2023-07-15T07:37:51.349Z,3.25
2023-07-15T07:40:19.898Z,3.13
2023-07-15T07:42:48.189Z,3.00
2023-07-15T07:45:18.043Z,3.22
2023-07-15T07:47:46.580Z,3.30
2023-07-15T07:50:15.047Z,3.03
2023-07-15T07:52:44.725Z,3.08
2023-07-15T07:55:13.063Z,3.03
2023-07-15T07:57:41.370Z,3.22
2023-07-15T08:00:11.134Z,3.10
2023-07-15T08:02:39.485Z,3.63
2023-07-15T08:05:09.745Z,2.70
2023-07-15T08:07:38.144Z,3.30
2023-07-15T08:10:09.810Z,3.10
2023-07-15T08:12:38.143Z,3.15
2023-07-15T08:15:09.306Z,3.10
2023-07-15T08:17:38.625Z,3.08
2023-07-15T08:20:10.300Z,3.10
2023-07-15T08:22:39.030Z,3.00
2023-07-15T08:25:10.091Z,3.47
2023-07-15T08:27:38.508Z,3.00
2023-07-15T08:30:08.643Z,2.90
2023-07-15T08:32:37.091Z,2.90
2023-07-15T08:35:06.822Z,3.00
2023-07-15T08:37:35.155Z,3.03
2023-07-15T08:40:04.198Z,3.13
2023-07-15T08:42:37.598Z,2.83
2023-07-15T08:45:07.539Z,2.78
2023-07-15T08:47:35.970Z,3.10
2023-07-15T08:50:07.178Z,2.55
2023-07-15T08:52:37.791Z,2.88
2023-07-15T08:55:07.685Z,2.72
2023-07-15T08:57:37.893Z,3.03
2023-07-15T09:00:11.603Z,2.85
2023-07-15T09:02:40.562Z,3.10
2023-07-15T09:05:10.466Z,2.72
2023-07-15T09:07:53.123Z,2.47
2023-07-15T09:10:24.255Z,2.60
2023-07-15T09:12:57.776Z,2.40
2023-07-15T09:15:26.438Z,2.85
2023-07-15T09:17:56.682Z,3.15
2023-07-15T09:20:28.400Z,2.70
2023-07-15T09:22:58.553Z,2.65
2023-07-15T09:25:28.002Z,2.80
2023-07-15T09:27:57.813Z,2.88
2023-07-15T09:30:26.399Z,2.78
2023-07-15T09:32:54.871Z,2.70
2023-07-15T09:35:23.536Z,2.63
2023-07-15T09:37:53.160Z,2.63
2023-07-15T09:40:21.663Z,2.55
2023-07-15T09:42:55.048Z,2.22
2023-07-15T09:45:36.888Z,2.35
2023-07-15T09:48:08.335Z,1.98
2023-07-15T09:50:38.650Z,1.70
2023-07-15T09:53:07.823Z,1.60
2023-07-15T09:55:39.562Z,1.77
2023-07-15T09:58:24.646Z,1.70
2023-07-15T10:00:58.134Z,1.58
2023-07-15T10:03:35.387Z,1.60
2023-07-15T10:06:05.385Z,2.05
2023-07-15T10:08:34.102Z,1.67
2023-07-15T10:11:03.313Z,1.92
2023-07-15T10:13:34.554Z,1.70
2023-07-15T10:16:05.218Z,1.83
2023-07-15T10:18:33.862Z,1.65
2023-07-15T10:21:06.412Z,2.17
2023-07-15T10:23:40.739Z,1.60
2023-07-15T10:26:11.373Z,1.90
2023-07-15T10:28:42.450Z,1.65
2023-07-15T10:31:14.765Z,1.80
2023-07-15T10:33:57.841Z,1.80
2023-07-15T10:36:45.791Z,1.75
2023-07-15T10:39:16.212Z,2.25
2023-07-15T10:41:46.938Z,2.55
2023-07-15T10:44:22.711Z,1.75
2023-07-15T10:46:54.741Z,2.10
2023-07-15T10:49:23.713Z,2.17
2023-07-15T10:51:55.638Z,1.90
2023-07-15T10:54:26.095Z,2.22
2023-07-15T10:56:54.973Z,2.08
2023-07-15T10:59:25.976Z,2.45
2023-07-15T11:01:55.704Z,2.13
2023-07-15T11:04:24.043Z,2.20
2023-07-15T11:06:53.379Z,2.22
2023-07-15T11:09:23.732Z,2.25
2023-07-15T11:11:52.678Z,1.90
2023-07-15T11:14:23.140Z,1.92
2023-07-15T11:16:57.804Z,2.20
2023-07-15T11:19:28.457Z,1.92
2023-07-15T11:21:59.468Z,1.92
2023-07-15T11:24:29.685Z,2.05
2023-07-15T11:27:02.659Z,1.90
2023-07-15T11:29:31.342Z,1.80
2023-07-15T11:32:02.509Z,2.00
2023-07-15T11:34:31.950Z,1.65
2023-07-15T11:37:04.038Z,2.05
2023-07-15T11:39:32.582Z,2.30
2023-07-15T11:42:00.915Z,1.73
2023-07-15T11:44:29.319Z,1.70
2023-07-15T11:46:58.373Z,1.40
2023-07-15T11:49:28.088Z,1.88
2023-07-15T11:51:58.397Z,2.00
2023-07-15T11:54:26.752Z,2.00
2023-07-15T11:56:59.393Z,2.28
2023-07-15T11:59:30.937Z,1.80
2023-07-15T12:02:00.529Z,1.67
2023-07-15T12:04:31.346Z,1.70
2023-07-15T12:07:00.520Z,1.73
2023-07-15T12:09:28.836Z,1.80
2023-07-15T12:11:57.280Z,1.60
2023-07-15T12:14:26.408Z,2.25
2023-07-15T12:17:00.261Z,1.95
2023-07-15T12:19:32.857Z,1.77
2023-07-15T12:22:01.305Z,1.60
2023-07-15T12:24:29.591Z,1.70
2023-07-15T12:26:57.884Z,1.65
2023-07-15T12:29:26.198Z,1.80
2023-07-15T12:31:54.530Z,1.90
2023-07-15T12:34:23.116Z,1.40
2023-07-15T12:36:53.246Z,1.60
2023-07-15T12:39:22.832Z,1.60
2023-07-15T12:41:51.207Z,1.65
2023-07-15T12:44:21.907Z,1.70
2023-07-15T12:46:50.257Z,1.70
2023-07-15T12:49:18.659Z,1.88
2023-07-15T12:51:46.963Z,2.05
2023-07-15T12:54:16.830Z,1.55
2023-07-15T12:56:45.086Z,1.50
2023-07-15T12:59:13.412Z,1.60
2023-07-15T13:01:41.753Z,1.70
2023-07-15T13:04:10.188Z,1.70
2023-07-15T13:06:38.577Z,1.90
2023-07-15T13:09:07.010Z,1.65
2023-07-15T13:11:38.015Z,1.63
2023-07-15T13:14:09.042Z,1.80
2023-07-15T13:16:37.480Z,1.48
2023-07-15T13:19:05.833Z,1.45
2023-07-15T13:21:34.293Z,1.58
2023-07-15T13:24:02.579Z,1.73
2023-07-15T13:26:30.901Z,1.27
2023-07-15T13:29:00.555Z,1.63
2023-07-15T13:31:29.003Z,1.80
2023-07-15T13:33:57.360Z,1.90
2023-07-15T13:36:25.732Z,1.70
2023-07-15T13:38:58.679Z,1.60
2023-07-15T13:41:28.916Z,2.03
2023-07-15T13:44:02.908Z,1.50
2023-07-15T13:46:32.686Z,1.48
2023-07-15T13:49:01.041Z,1.60
2023-07-15T13:51:29.372Z,1.80
2023-07-15T13:54:00.716Z,1.88
2023-07-15T13:56:29.022Z,1.65
2023-07-15T13:58:57.348Z,1.73
2023-07-15T14:01:25.861Z,1.40
2023-07-15T14:03:55.654Z,1.63
2023-07-15T14:06:24.113Z,1.42
2023-07-15T14:08:52.495Z,1.73
2023-07-15T14:11:20.899Z,1.60
2023-07-15T14:13:49.270Z,1.30
2023-07-15T14:16:17.720Z,1.40
2023-07-15T14:18:47.348Z,1.58
2023-07-15T14:21:17.329Z,1.50
2023-07-15T14:23:46.063Z,1.52
2023-07-15T14:26:14.946Z,1.52
2023-07-15T14:28:43.455Z,1.70
2023-07-15T14:31:11.921Z,1.67
2023-07-15T14:33:40.466Z,1.65
2023-07-15T14:36:08.924Z,1.55
2023-07-15T14:38:38.676Z,1.73
2023-07-15T14:41:07.072Z,1.90
2023-07-15T14:43:35.496Z,1.70
2023-07-15T14:46:08.477Z,2.25
2023-07-15T14:48:39.949Z,2.13
2023-07-15T14:51:08.781Z,2.08
2023-07-15T14:53:38.522Z,1.73
2023-07-15T14:56:07.186Z,2.30
2023-07-15T14:58:38.475Z,1.90
2023-07-15T15:01:06.914Z,2.10
2023-07-15T15:03:35.366Z,2.13
2023-07-15T15:06:03.724Z,1.67
2023-07-15T15:08:32.149Z,2.22
2023-07-15T15:11:01.911Z,1.95
2023-07-15T15:13:30.320Z,2.25
2023-07-15T15:15:58.742Z,1.77
2023-07-15T15:18:27.216Z,1.95
2023-07-15T15:20:55.589Z,1.85
2023-07-15T15:23:25.120Z,1.77
2023-07-15T15:25:53.522Z,1.50
2023-07-15T15:28:26.126Z,1.75
2023-07-15T15:30:56.264Z,2.17
2023-07-15T15:33:24.916Z,2.05
2023-07-15T15:35:53.411Z,1.80
2023-07-15T15:38:26.446Z,1.80
2023-07-15T15:40:54.924Z,1.80
2023-07-15T15:43:25.523Z,1.75
2023-07-15T15:45:54.304Z,2.03
2023-07-15T15:48:25.638Z,1.77
2023-07-15T15:50:54.659Z,1.48
2023-07-15T15:53:24.694Z,1.85
2023-07-15T15:55:53.146Z,1.55
2023-07-15T15:58:21.563Z,1.77
2023-07-15T16:00:51.354Z,1.73
2023-07-15T16:03:19.812Z,1.77
2023-07-15T16:05:48.355Z,1.90
2023-07-15T16:08:16.770Z,1.95
2023-07-15T16:10:45.155Z,1.85
2023-07-15T16:13:13.530Z,1.63
2023-07-15T16:15:41.977Z,1.67
2023-07-15T16:18:11.711Z,1.75
2023-07-15T16:20:40.084Z,2.22
2023-07-15T16:23:08.986Z,1.60
2023-07-15T16:25:37.604Z,1.55
2023-07-15T16:28:07.190Z,1.80
2023-07-15T16:30:37.520Z,1.60
2023-07-15T16:33:05.929Z,2.10
2023-07-15T16:35:35.820Z,2.00
2023-07-15T16:38:04.166Z,1.65
2023-07-15T16:40:33.171Z,1.98
2023-07-15T16:43:01.561Z,1.50
2023-07-15T16:45:29.952Z,2.17
2023-07-15T16:47:58.386Z,1.77
2023-07-15T16:50:27.006Z,2.00
2023-07-15T16:52:56.834Z,1.73
2023-07-15T16:55:25.203Z,1.70
2023-07-15T16:57:53.687Z,1.85
2023-07-15T17:00:22.068Z,1.88
2023-07-15T17:02:50.494Z,1.83
2023-07-15T17:05:19.149Z,1.73
2023-07-15T17:07:47.540Z,1.85
2023-07-15T17:10:17.313Z,1.63
2023-07-15T17:12:45.786Z,1.70
2023-07-15T17:15:14.178Z,2.15
2023-07-15T17:17:42.591Z,1.55
2023-07-15T17:20:12.208Z,1.88
2023-07-15T17:22:40.648Z,2.20
2023-07-15T17:25:09.822Z,1.88
2023-07-15T17:27:39.577Z,1.90
2023-07-15T17:30:09.895Z,1.90
2023-07-15T17:32:38.321Z,1.83
2023-07-15T17:35:07.829Z,1.85
2023-07-15T17:37:36.183Z,1.80
2023-07-15T17:40:06.383Z,1.70
2023-07-15T17:42:34.725Z,1.60
2023-07-15T17:45:05.051Z,2.28
2023-07-15T17:47:34.820Z,1.90
2023-07-15T17:50:06.222Z,1.83
2023-07-15T17:52:34.610Z,1.77
2023-07-15T17:55:10.154Z,1.73
2023-07-15T17:57:49.843Z,1.80
2023-07-15T18:00:20.853Z,1.58
2023-07-15T18:02:50.275Z,1.77
2023-07-15T18:05:19.413Z,1.80
2023-07-15T18:07:47.830Z,1.55
2023-07-15T18:10:16.297Z,1.80
2023-07-15T18:12:45.146Z,1.70
2023-07-15T18:15:13.573Z,1.98
2023-07-15T18:17:43.554Z,1.85
2023-07-15T18:20:12.559Z,1.88
2023-07-15T18:22:41.051Z,1.80
2023-07-15T18:25:10.017Z,2.20
2023-07-15T18:27:38.733Z,2.38
2023-07-15T18:30:08.519Z,2.10
2023-07-15T18:32:37.121Z,2.00
2023-07-15T18:35:08.403Z,2.63
2023-07-15T18:37:36.811Z,2.80
2023-07-15T18:40:06.788Z,2.40
2023-07-15T18:42:35.170Z,2.40
2023-07-15T18:45:03.672Z,2.40
2023-07-15T18:47:32.011Z,2.20
2023-07-15T18:50:00.371Z,1.90
2023-07-15T18:52:30.538Z,2.17
2023-07-15T18:54:58.934Z,1.90
2023-07-15T18:57:27.272Z,2.53
2023-07-15T18:59:55.691Z,2.17
2023-07-15T19:02:24.116Z,2.15
2023-07-15T19:04:52.598Z,2.20
2023-07-15T19:07:20.954Z,2.28
2023-07-15T19:09:50.645Z,2.30
2023-07-15T19:12:19.008Z,2.47
2023-07-15T19:14:47.377Z,2.33
2023-07-15T19:17:16.228Z,2.55
2023-07-15T19:19:44.739Z,2.70
2023-07-15T19:22:13.213Z,2.67
2023-07-15T19:24:41.562Z,2.80
2023-07-15T19:27:11.506Z,2.63
2023-07-15T19:29:39.969Z,2.30
2023-07-15T19:32:09.362Z,2.30
2023-07-15T19:34:37.754Z,2.90
2023-07-15T19:37:06.982Z,2.45
2023-07-15T19:39:35.331Z,2.67
2023-07-15T19:42:03.689Z,2.70
2023-07-15T19:44:33.378Z,2.75
2023-07-15T19:47:01.813Z,2.40
2023-07-15T19:49:30.202Z,2.40
2023-07-15T19:51:58.557Z,2.35
2023-07-15T19:54:27.031Z,2.35
2023-07-15T19:56:55.596Z,2.38
2023-07-15T19:59:25.535Z,2.92
2023-07-15T20:01:55.357Z,2.40
2023-07-15T20:04:23.913Z,2.60
2023-07-15T20:06:55.282Z,3.00
2023-07-15T20:09:24.343Z,2.72
2023-07-15T20:11:52.740Z,2.92
2023-07-15T20:14:21.077Z,2.80
2023-07-15T20:16:50.226Z,2.72
2023-07-15T20:19:20.660Z,3.00
2023-07-15T20:21:49.017Z,2.80
2023-07-15T20:24:17.366Z,2.97
2023-07-15T20:26:45.700Z,3.15
2023-07-15T20:29:14.081Z,2.75
2023-07-15T20:31:42.497Z,2.90
2023-07-15T20:34:12.084Z,3.03
2023-07-15T20:36:41.804Z,2.90
2023-07-15T20:39:10.277Z,2.95
2023-07-15T20:41:38.800Z,3.05
2023-07-15T20:44:07.222Z,4.75
2023-07-15T20:46:35.617Z,16.23
2023-07-15T20:49:03.962Z,11.88
2023-07-15T20:51:32.291Z,14.85
2023-07-15T20:54:01.996Z,14.25
2023-07-15T20:56:30.373Z,12.15
2023-07-15T20:58:58.793Z,23.20
2023-07-15T21:01:27.386Z,31.85
2023-07-15T21:03:55.837Z,16.23
2023-07-15T21:06:24.248Z,8.82
2023-07-15T21:08:52.611Z,5.90
2023-07-15T21:11:22.388Z,5.10
2023-07-15T21:13:51.941Z,6.15
2023-07-15T21:16:26.259Z,5.13
2023-07-15T21:18:54.613Z,3.90
2023-07-15T21:21:23.164Z,3.70
2023-07-15T21:23:53.952Z,3.53
2023-07-15T21:26:23.733Z,2.97
2023-07-15T21:28:52.064Z,3.40
2023-07-15T21:31:20.442Z,2.90
2023-07-15T21:33:48.831Z,3.38
2023-07-15T21:36:17.682Z,3.10
2023-07-15T21:38:47.118Z,3.47
2023-07-15T21:41:15.507Z,4.27
2023-07-15T21:43:45.435Z,3.20
2023-07-15T21:46:14.249Z,3.08
2023-07-15T21:48:43.167Z,3.20
2023-07-15T21:51:11.537Z,3.30
2023-07-15T21:53:39.902Z,3.07
2023-07-15T21:56:09.258Z,3.17
2023-07-15T21:58:38.502Z,3.03
2023-07-15T22:01:08.382Z,2.90
2023-07-15T22:03:36.816Z,3.30
2023-07-15T22:06:05.397Z,2.93
2023-07-15T22:08:34.705Z,3.03
2023-07-15T22:11:03.089Z,3.50
2023-07-15T22:13:34.480Z,3.13
2023-07-15T22:16:02.963Z,3.23
2023-07-15T22:18:40.494Z,3.13
2023-07-15T22:21:11.749Z,3.20
2023-07-15T22:23:40.110Z,3.30
2023-07-15T22:26:09.526Z,3.30
2023-07-15T22:28:38.138Z,3.20
2023-07-15T22:31:06.542Z,3.40
2023-07-15T22:33:36.387Z,3.30
2023-07-15T22:36:04.988Z,3.50
2023-07-15T22:38:33.299Z,2.80
2023-07-15T22:41:02.205Z,3.07
2023-07-15T22:43:32.717Z,2.93
2023-07-15T22:46:03.969Z,3.03
2023-07-15T22:48:32.342Z,3.47
2023-07-15T22:51:02.199Z,3.50
2023-07-15T22:53:30.484Z,3.40
2023-07-15T22:55:58.787Z,3.30
2023-07-15T22:58:27.206Z,3.40
2023-07-15T23:00:57.946Z,3.43
2023-07-15T23:03:37.201Z,3.57
2023-07-15T23:06:07.292Z,3.60
2023-07-15T23:08:35.791Z,4.03
2023-07-15T23:11:04.075Z,4.00
2023-07-15T23:13:33.450Z,3.60
2023-07-15T23:16:17.205Z,3.63
2023-07-15T23:18:50.854Z,3.10
2023-07-15T23:21:20.610Z,3.57
2023-07-15T23:23:48.991Z,3.43
2023-07-15T23:26:17.481Z,3.20
2023-07-15T23:28:49.355Z,3.03
2023-07-15T23:31:18.893Z,3.13
2023-07-15T23:33:53.200Z,4.37
2023-07-15T23:36:22.888Z,3.00
2023-07-15T23:38:51.215Z,3.33
2023-07-15T23:41:20.963Z,3.60
2023-07-15T23:43:50.405Z,3.30
2023-07-15T23:46:21.429Z,3.60
2023-07-15T23:48:49.749Z,3.63
2023-07-15T23:51:18.048Z,3.30
2023-07-15T23:53:47.760Z,3.27
2023-07-15T23:56:16.257Z,3.27
2023-07-15T23:58:44.843Z,2.97
